CheckWX is a tool to help pilots better visualize weather data.  It is not intended as a substitute for an official pre-flight weather briefing.

12:00:03 UTC

6B9 METAR
Skaneateles Aero Drome Airport
Skaneateles, New York, USA
Current

25 mins ago

K6B9 251135Z AUTO 01007KT 10SM FEW070 M04/M13 A3017 RMK AO2
Observed
Mar-25 @ 11:35 UTC
Wind
  • 010° at 7 KTS
Visibility
10 SM
Flight Rules
VFR
Cloud Levels
  • Few at 7,000' AGL
Temperature
-4°C / 25°F
Dewpoint
-13°C / 9°F
Humidity
50%
Altimeter
30.17" Hg
Pressure
1021.72 hPa
Previous

45 mins ago

K6B9 251115Z AUTO 01007KT 10SM BKN070 M03/M14 A3017 RMK AO2
Observed
Mar-25 @ 11:15 UTC
Wind
  • 010° at 7 KTS
Visibility
10 SM
Flight Rules
VFR
Cloud Levels
  • Broken at 7,000' AGL
Temperature
-3°C / 27°F
Dewpoint
-14°C / 7°F
Humidity
43%
Altimeter
30.17" Hg
Pressure
1021.72 hPa
Previous

1 hour ago

K6B9 251055Z AUTO 02006KT 10SM OVC070 M03/M12 A3016 RMK AO2
Observed
Mar-25 @ 10:55 UTC
Wind
  • 020° at 6 KTS
Visibility
10 SM
Flight Rules
VFR
Cloud Levels
  • Overcast at 7,000' AGL
Temperature
-3°C / 27°F
Dewpoint
-12°C / 10°F
Humidity
50%
Altimeter
30.16" Hg
Pressure
1021.32 hPa